ASL792 LYBE-LFOB
Flight info
| Callsign | ASL792 |
|---|---|
| Flight time | 2h 16m |
| Altitude | 38000 |
| Route | TISAK DCT TONDO DCT SASAL DCT RENKA DCT INBED DCT BOMBI DCT RUDUS DCT OBIGA DCT NOSPA DCT BITBU DCT DIK UN857 TOLVU/N0445F390 DCT RAPOR DCT VEDUS |
| Aircraft | B738/M-SDE2E3FGHIRWXY/LB1 |
Departure
| Time | 2026-04-29 17:01 |
|---|---|
| Airport | Belgrade Nikola Tesla Airport (LYBE) |
Arrival
| Time | 2026-04-29 19:17 |
|---|---|
| Airport | Beauvais-Tillé airport (LFOB) |
| Time | Latitude | Longitude | Altitude | Speed | Heading |
|---|---|---|---|---|---|
| 2026-04-29 16:40 | 44.82017 | 20.29341 | 342 ft | 0 kts | 302° |
| 2026-04-29 16:50 | 44.82013 | 20.29351 | 342 ft | 2 kts | 306° |
| 2026-04-29 16:50 | 44.82004 | 20.29368 | 342 ft | 2 kts | 300° |
| 2026-04-29 16:50 | 44.81997 | 20.29386 | 342 ft | 2 kts | 303° |
| 2026-04-29 16:50 | 44.81985 | 20.29400 | 342 ft | 2 kts | 335° |
| 2026-04-29 16:51 | 44.81971 | 20.29406 | 342 ft | 2 kts | 359° |
| 2026-04-29 16:51 | 44.81956 | 20.29402 | 342 ft | 1 kts | 24° |
| 2026-04-29 16:51 | 44.81950 | 20.29398 | 342 ft | 1 kts | 35° |
| 2026-04-29 16:51 | 44.81948 | 20.29395 | 342 ft | 0 kts | 32° |
| 2026-04-29 16:52 | 44.81950 | 20.29397 | 342 ft | 2 kts | 32° |
| 2026-04-29 16:53 | 44.81982 | 20.29425 | 342 ft | 5 kts | 31° |
| 2026-04-29 16:53 | 44.82013 | 20.29451 | 342 ft | 4 kts | 31° |
| 2026-04-29 16:53 | 44.82063 | 20.29495 | 342 ft | 10 kts | 31° |
| 2026-04-29 16:53 | 44.82114 | 20.29562 | 342 ft | 9 kts | 83° |
| 2026-04-29 16:54 | 44.82091 | 20.29646 | 342 ft | 9 kts | 120° |
| 2026-04-29 16:54 | 44.82051 | 20.29739 | 342 ft | 12 kts | 121° |
| 2026-04-29 16:54 | 44.82000 | 20.29855 | 342 ft | 14 kts | 121° |
| 2026-04-29 16:54 | 44.81946 | 20.29977 | 342 ft | 15 kts | 122° |
| 2026-04-29 16:55 | 44.81884 | 20.30114 | 342 ft | 17 kts | 121° |
| 2026-04-29 16:55 | 44.81823 | 20.30254 | 342 ft | 16 kts | 121° |
| 2026-04-29 16:55 | 44.81765 | 20.30384 | 342 ft | 15 kts | 122° |
| 2026-04-29 16:55 | 44.81710 | 20.30508 | 342 ft | 14 kts | 122° |
| 2026-04-29 16:56 | 44.81659 | 20.30624 | 342 ft | 13 kts | 122° |
| 2026-04-29 16:56 | 44.81610 | 20.30733 | 342 ft | 12 kts | 122° |
| 2026-04-29 16:56 | 44.81565 | 20.30835 | 342 ft | 12 kts | 121° |
| 2026-04-29 16:56 | 44.81511 | 20.30957 | 342 ft | 17 kts | 122° |
| 2026-04-29 16:57 | 44.81446 | 20.31102 | 342 ft | 17 kts | 122° |
| 2026-04-29 16:57 | 44.81385 | 20.31238 | 342 ft | 16 kts | 121° |
| 2026-04-29 16:57 | 44.81328 | 20.31369 | 342 ft | 15 kts | 121° |
| 2026-04-29 16:57 | 44.81273 | 20.31493 | 342 ft | 14 kts | 121° |
| 2026-04-29 16:58 | 44.81222 | 20.31609 | 342 ft | 13 kts | 122° |
| 2026-04-29 16:58 | 44.81173 | 20.31718 | 342 ft | 12 kts | 122° |
| 2026-04-29 16:58 | 44.81127 | 20.31820 | 342 ft | 11 kts | 122° |
| 2026-04-29 16:58 | 44.81085 | 20.31913 | 342 ft | 10 kts | 122° |
| 2026-04-29 16:59 | 44.81045 | 20.32000 | 342 ft | 10 kts | 122° |
| 2026-04-29 16:59 | 44.81010 | 20.32081 | 342 ft | 10 kts | 119° |
| 2026-04-29 16:59 | 44.80996 | 20.32201 | 342 ft | 15 kts | 69° |
| 2026-04-29 16:59 | 44.81073 | 20.32289 | 342 ft | 14 kts | 21° |
| 2026-04-29 17:00 | 44.81172 | 20.32295 | 342 ft | 17 kts | 341° |
| 2026-04-29 17:00 | 44.81372 | 20.31979 | 342 ft | 79 kts | 301° |
| 2026-04-29 17:00 | 44.81786 | 20.31042 | 343 ft | 143 kts | 301° |
| 2026-04-29 17:00 | 44.82413 | 20.29666 | 547 ft | 179 kts | 302° |
| 2026-04-29 17:01 | 44.83055 | 20.28236 | 1331 ft | 167 kts | 303° |
| 2026-04-29 17:01 | 44.83684 | 20.26750 | 1511 ft | 196 kts | 302° |
| 2026-04-29 17:01 | 44.84388 | 20.25010 | 2123 ft | 208 kts | 302° |
| 2026-04-29 17:01 | 44.85316 | 20.23470 | 2718 ft | 215 kts | 332° |
| 2026-04-29 17:02 | 44.86761 | 20.23076 | 3279 ft | 225 kts | 11° |
| 2026-04-29 17:02 | 44.88227 | 20.23884 | 4028 ft | 231 kts | 26° |
| 2026-04-29 17:02 | 44.89706 | 20.24785 | 4794 ft | 236 kts | 17° |
| 2026-04-29 17:02 | 44.91319 | 20.25196 | 5555 ft | 241 kts | 4° |
| 2026-04-29 17:03 | 44.93035 | 20.25188 | 5894 ft | 246 kts | 356° |
| 2026-04-29 17:03 | 44.94747 | 20.24926 | 5963 ft | 245 kts | 352° |
| 2026-04-29 17:03 | 44.96491 | 20.24666 | 6090 ft | 264 kts | 357° |
| 2026-04-29 17:03 | 44.98336 | 20.24611 | 6839 ft | 270 kts | 359° |
| 2026-04-29 17:04 | 45.00195 | 20.24594 | 7748 ft | 269 kts | 358° |
| 2026-04-29 17:04 | 45.02048 | 20.24554 | 8581 ft | 269 kts | 357° |
| 2026-04-29 17:04 | 45.03933 | 20.24486 | 9285 ft | 272 kts | 356° |
| 2026-04-29 17:04 | 45.05803 | 20.24405 | 10004 ft | 274 kts | 355° |
| 2026-04-29 17:05 | 45.07712 | 20.24316 | 10674 ft | 277 kts | 354° |
| 2026-04-29 17:05 | 45.09637 | 20.24219 | 11360 ft | 280 kts | 354° |
| 2026-04-29 17:05 | 45.11604 | 20.24127 | 12053 ft | 283 kts | 354° |
| 2026-04-29 17:05 | 45.13571 | 20.24036 | 12753 ft | 286 kts | 352° |
| 2026-04-29 17:06 | 45.15560 | 20.23927 | 13431 ft | 289 kts | 352° |
| 2026-04-29 17:06 | 45.17558 | 20.23820 | 14130 ft | 293 kts | 351° |
| 2026-04-29 17:06 | 45.19642 | 20.23716 | 14696 ft | 301 kts | 351° |
| 2026-04-29 17:06 | 45.21715 | 20.23599 | 15461 ft | 301 kts | 351° |
| 2026-04-29 17:07 | 45.23802 | 20.23462 | 16284 ft | 300 kts | 349° |
| 2026-04-29 17:07 | 45.25887 | 20.23375 | 16828 ft | 307 kts | 351° |
| 2026-04-29 17:07 | 45.28043 | 20.23299 | 17406 ft | 312 kts | 351° |
| 2026-04-29 17:07 | 45.30206 | 20.23200 | 18061 ft | 314 kts | 350° |
| 2026-04-29 17:08 | 45.32402 | 20.23114 | 18715 ft | 316 kts | 351° |
| 2026-04-29 17:08 | 45.34600 | 20.23028 | 19348 ft | 318 kts | 350° |
| 2026-04-29 17:08 | 45.36814 | 20.22931 | 19917 ft | 321 kts | 349° |
| 2026-04-29 17:08 | 45.39009 | 20.22692 | 20521 ft | 318 kts | 343° |
| 2026-04-29 17:09 | 45.41130 | 20.21972 | 21003 ft | 314 kts | 332° |
| 2026-04-29 17:09 | 45.43076 | 20.20656 | 21525 ft | 310 kts | 322° |
| 2026-04-29 17:09 | 45.44894 | 20.18910 | 21727 ft | 320 kts | 316° |
| 2026-04-29 17:09 | 45.46610 | 20.16822 | 21938 ft | 330 kts | 312° |
| 2026-04-29 17:10 | 45.48283 | 20.14544 | 22077 ft | 343 kts | 310° |
| 2026-04-29 17:10 | 45.50030 | 20.12092 | 22220 ft | 357 kts | 310° |
| 2026-04-29 17:10 | 45.51794 | 20.09619 | 22658 ft | 361 kts | 310° |
| 2026-04-29 17:10 | 45.53598 | 20.07107 | 23253 ft | 362 kts | 310° |
| 2026-04-29 17:11 | 45.55380 | 20.04638 | 23834 ft | 363 kts | 310° |
| 2026-04-29 17:11 | 45.57210 | 20.02104 | 24285 ft | 367 kts | 310° |
| 2026-04-29 17:11 | 45.59045 | 19.99562 | 24773 ft | 370 kts | 310° |
| 2026-04-29 17:11 | 45.60887 | 19.97009 | 25321 ft | 370 kts | 311° |
| 2026-04-29 17:12 | 45.62728 | 19.94460 | 25793 ft | 373 kts | 310° |
| 2026-04-29 17:12 | 45.64586 | 19.91885 | 26257 ft | 375 kts | 310° |
| 2026-04-29 17:12 | 45.66459 | 19.89287 | 26779 ft | 376 kts | 310° |
| 2026-04-29 17:12 | 45.67703 | 19.87561 | 26994 ft | 379 kts | 310° |
| 2026-04-29 17:13 | 45.70238 | 19.84034 | 27602 ft | 381 kts | 311° |
| 2026-04-29 17:13 | 45.72134 | 19.81394 | 28068 ft | 384 kts | 311° |
| 2026-04-29 17:13 | 45.74028 | 19.78756 | 28621 ft | 384 kts | 311° |
| 2026-04-29 17:13 | 45.75933 | 19.76098 | 29052 ft | 387 kts | 310° |
| 2026-04-29 17:14 | 45.77873 | 19.73387 | 29533 ft | 388 kts | 310° |
| 2026-04-29 17:14 | 45.79800 | 19.70692 | 29916 ft | 392 kts | 311° |
| 2026-04-29 17:14 | 45.81759 | 19.67951 | 30361 ft | 393 kts | 311° |
| 2026-04-29 17:14 | 45.83689 | 19.65247 | 30777 ft | 395 kts | 311° |
| 2026-04-29 17:15 | 45.85650 | 19.62499 | 31187 ft | 396 kts | 311° |
| 2026-04-29 17:15 | 45.87630 | 19.59725 | 31692 ft | 394 kts | 311° |
| 2026-04-29 17:15 | 45.89558 | 19.57025 | 32326 ft | 389 kts | 311° |
| 2026-04-29 17:15 | 45.91487 | 19.54318 | 32888 ft | 385 kts | 311° |
| 2026-04-29 17:16 | 45.93405 | 19.51618 | 33252 ft | 386 kts | 311° |
| 2026-04-29 17:16 | 45.95331 | 19.48902 | 33677 ft | 385 kts | 311° |
| 2026-04-29 17:16 | 45.97229 | 19.46223 | 34144 ft | 383 kts | 311° |
| 2026-04-29 17:16 | 45.99136 | 19.43527 | 34527 ft | 382 kts | 311° |
| 2026-04-29 17:17 | 46.01040 | 19.40833 | 34835 ft | 381 kts | 311° |
| 2026-04-29 17:17 | 46.02926 | 19.38127 | 34987 ft | 383 kts | 310° |
| 2026-04-29 17:17 | 46.04693 | 19.35257 | 35163 ft | 382 kts | 306° |
| 2026-04-29 17:17 | 46.06288 | 19.32179 | 35397 ft | 381 kts | 302° |
| 2026-04-29 17:18 | 46.07763 | 19.29015 | 35594 ft | 382 kts | 301° |
| 2026-04-29 17:18 | 46.09217 | 19.25779 | 35770 ft | 383 kts | 301° |
| 2026-04-29 17:18 | 46.10649 | 19.22569 | 35932 ft | 385 kts | 301° |
| 2026-04-29 17:18 | 46.12114 | 19.19282 | 36154 ft | 386 kts | 301° |
| 2026-04-29 17:19 | 46.13566 | 19.16027 | 36420 ft | 388 kts | 301° |
| 2026-04-29 17:19 | 46.15031 | 19.12747 | 36645 ft | 389 kts | 301° |
| 2026-04-29 17:19 | 46.16495 | 19.09469 | 36880 ft | 391 kts | 301° |
| 2026-04-29 17:19 | 46.17971 | 19.06168 | 37131 ft | 392 kts | 301° |
| 2026-04-29 17:20 | 46.19435 | 19.02893 | 37376 ft | 392 kts | 302° |
| 2026-04-29 17:20 | 46.20921 | 18.99565 | 37595 ft | 394 kts | 302° |
| 2026-04-29 17:20 | 46.22389 | 18.96271 | 37777 ft | 395 kts | 302° |
| 2026-04-29 17:20 | 46.23881 | 18.92923 | 38014 ft | 396 kts | 302° |
| 2026-04-29 17:21 | 46.25369 | 18.89579 | 38151 ft | 398 kts | 302° |
| 2026-04-29 17:21 | 46.26855 | 18.86238 | 38168 ft | 400 kts | 302° |
| 2026-04-29 17:21 | 46.29860 | 18.79466 | 38167 ft | 398 kts | 302° |
| 2026-04-29 17:22 | 46.32832 | 18.72751 | 38176 ft | 399 kts | 302° |
| 2026-04-29 17:22 | 46.35815 | 18.65994 | 38173 ft | 399 kts | 302° |
| 2026-04-29 17:23 | 46.38788 | 18.59246 | 38176 ft | 397 kts | 302° |
| 2026-04-29 17:23 | 46.41740 | 18.52525 | 38176 ft | 399 kts | 302° |
| 2026-04-29 17:24 | 46.44699 | 18.45774 | 38180 ft | 398 kts | 302° |
| 2026-04-29 17:24 | 46.47674 | 18.38971 | 38197 ft | 400 kts | 302° |
| 2026-04-29 17:25 | 46.50635 | 18.32188 | 38170 ft | 399 kts | 301° |
| 2026-04-29 17:25 | 46.53603 | 18.25364 | 38185 ft | 400 kts | 302° |
| 2026-04-29 17:26 | 46.56535 | 18.18612 | 38176 ft | 397 kts | 302° |
| 2026-04-29 17:26 | 46.59473 | 18.11826 | 38190 ft | 399 kts | 302° |
| 2026-04-29 17:27 | 46.62426 | 18.04993 | 38180 ft | 399 kts | 302° |
| 2026-04-29 17:27 | 46.65360 | 17.98183 | 38188 ft | 399 kts | 302° |
| 2026-04-29 17:28 | 46.68298 | 17.91345 | 38200 ft | 400 kts | 302° |
| 2026-04-29 17:28 | 46.71218 | 17.84532 | 38188 ft | 399 kts | 302° |
| 2026-04-29 17:29 | 46.74158 | 17.77659 | 38180 ft | 399 kts | 302° |
| 2026-04-29 17:29 | 46.77094 | 17.70780 | 38184 ft | 400 kts | 302° |
| 2026-04-29 17:30 | 46.80010 | 17.63931 | 38195 ft | 400 kts | 302° |
| 2026-04-29 17:30 | 46.82946 | 17.57018 | 38204 ft | 401 kts | 302° |
| 2026-04-29 17:31 | 46.85860 | 17.50139 | 38213 ft | 401 kts | 302° |
| 2026-04-29 17:31 | 46.88791 | 17.43201 | 38194 ft | 402 kts | 302° |
| 2026-04-29 17:32 | 46.91707 | 17.36277 | 38198 ft | 403 kts | 302° |
| 2026-04-29 17:32 | 46.94631 | 17.29321 | 38211 ft | 404 kts | 301° |
| 2026-04-29 17:33 | 46.97553 | 17.22352 | 38208 ft | 400 kts | 301° |
| 2026-04-29 17:33 | 47.00410 | 17.15520 | 38231 ft | 391 kts | 301° |
| 2026-04-29 17:34 | 47.03227 | 17.08766 | 38218 ft | 394 kts | 302° |
| 2026-04-29 17:34 | 47.06114 | 17.01827 | 38213 ft | 403 kts | 302° |
| 2026-04-29 17:35 | 47.10469 | 16.91331 | 38223 ft | 403 kts | 302° |
| 2026-04-29 17:36 | 47.13366 | 16.84324 | 38216 ft | 403 kts | 302° |
| 2026-04-29 17:36 | 47.16278 | 16.77267 | 38217 ft | 404 kts | 302° |
| 2026-04-29 17:37 | 47.19164 | 16.70252 | 38202 ft | 404 kts | 302° |
| 2026-04-29 17:37 | 47.22086 | 16.63131 | 38227 ft | 406 kts | 302° |
| 2026-04-29 17:38 | 47.24974 | 16.56075 | 38231 ft | 405 kts | 302° |
| 2026-04-29 17:38 | 47.27861 | 16.49004 | 38187 ft | 404 kts | 302° |
| 2026-04-29 17:39 | 47.30877 | 16.41971 | 38228 ft | 407 kts | 305° |
| 2026-04-29 17:39 | 47.34063 | 16.35144 | 38230 ft | 406 kts | 306° |
| 2026-04-29 17:40 | 47.37279 | 16.28273 | 38234 ft | 406 kts | 304° |
| 2026-04-29 17:40 | 47.40434 | 16.21451 | 38237 ft | 405 kts | 304° |
| 2026-04-29 17:41 | 47.43614 | 16.14517 | 38228 ft | 407 kts | 304° |
| 2026-04-29 17:41 | 47.46772 | 16.07596 | 38221 ft | 408 kts | 304° |
| 2026-04-29 17:42 | 47.49932 | 16.00650 | 38204 ft | 408 kts | 304° |
| 2026-04-29 17:42 | 47.53091 | 15.93689 | 38190 ft | 407 kts | 304° |
| 2026-04-29 17:43 | 47.56219 | 15.86778 | 38225 ft | 408 kts | 304° |
| 2026-04-29 17:43 | 47.59369 | 15.79802 | 38222 ft | 409 kts | 304° |
| 2026-04-29 17:44 | 47.62527 | 15.72787 | 38232 ft | 410 kts | 304° |
| 2026-04-29 17:44 | 47.65664 | 15.65803 | 38228 ft | 410 kts | 304° |
| 2026-04-29 17:45 | 47.68817 | 15.58763 | 38217 ft | 410 kts | 304° |
| 2026-04-29 17:45 | 47.71965 | 15.51716 | 38217 ft | 411 kts | 305° |
| 2026-04-29 17:46 | 47.75116 | 15.44646 | 38206 ft | 411 kts | 305° |
| 2026-04-29 17:46 | 47.78249 | 15.37595 | 38204 ft | 412 kts | 305° |
| 2026-04-29 17:47 | 47.81422 | 15.30440 | 38210 ft | 413 kts | 304° |
| 2026-04-29 17:47 | 47.84555 | 15.23353 | 38200 ft | 412 kts | 304° |
| 2026-04-29 17:48 | 47.87690 | 15.16243 | 38215 ft | 413 kts | 304° |
| 2026-04-29 17:48 | 47.90838 | 15.09087 | 38234 ft | 414 kts | 304° |
| 2026-04-29 17:49 | 47.93980 | 15.01923 | 38245 ft | 412 kts | 304° |
| 2026-04-29 17:49 | 47.97091 | 14.94813 | 38242 ft | 414 kts | 304° |
| 2026-04-29 17:50 | 48.00230 | 14.87625 | 38258 ft | 416 kts | 304° |
| 2026-04-29 17:50 | 48.03375 | 14.80399 | 38257 ft | 416 kts | 304° |
| 2026-04-29 17:51 | 48.06525 | 14.73143 | 38252 ft | 416 kts | 304° |
| 2026-04-29 17:51 | 48.09663 | 14.65897 | 38265 ft | 415 kts | 304° |
| 2026-04-29 17:52 | 48.12785 | 14.58667 | 38260 ft | 416 kts | 305° |
| 2026-04-29 17:52 | 48.15913 | 14.51400 | 38267 ft | 417 kts | 305° |
| 2026-04-29 17:53 | 48.19049 | 14.44097 | 38274 ft | 417 kts | 305° |
| 2026-04-29 17:53 | 48.22186 | 14.36775 | 38274 ft | 416 kts | 305° |
| 2026-04-29 17:54 | 48.25311 | 14.29463 | 38276 ft | 416 kts | 304° |
| 2026-04-29 17:54 | 48.28420 | 14.22165 | 38279 ft | 416 kts | 304° |
| 2026-04-29 17:55 | 48.31524 | 14.14860 | 38278 ft | 417 kts | 304° |
| 2026-04-29 17:55 | 48.34625 | 14.07542 | 38277 ft | 416 kts | 304° |
| 2026-04-29 17:56 | 48.37738 | 14.00174 | 38280 ft | 417 kts | 304° |
| 2026-04-29 17:56 | 48.40842 | 13.92807 | 38286 ft | 416 kts | 304° |
| 2026-04-29 17:57 | 48.43795 | 13.85334 | 38283 ft | 418 kts | 301° |
| 2026-04-29 17:57 | 48.46454 | 13.77554 | 38285 ft | 419 kts | 300° |
| 2026-04-29 17:58 | 48.49083 | 13.69682 | 38283 ft | 419 kts | 300° |
| 2026-04-29 17:58 | 48.51720 | 13.61864 | 38273 ft | 420 kts | 300° |
| 2026-04-29 17:59 | 48.54371 | 13.54067 | 38275 ft | 418 kts | 300° |
| 2026-04-29 17:59 | 48.57029 | 13.46260 | 38273 ft | 419 kts | 300° |
| 2026-04-29 18:00 | 48.59676 | 13.38471 | 38277 ft | 419 kts | 301° |
| 2026-04-29 18:00 | 48.62328 | 13.30645 | 38268 ft | 419 kts | 300° |
| 2026-04-29 18:01 | 48.64984 | 13.22788 | 38257 ft | 421 kts | 300° |
| 2026-04-29 18:01 | 48.67628 | 13.14944 | 38255 ft | 421 kts | 300° |
| 2026-04-29 18:02 | 48.70284 | 13.07037 | 38259 ft | 421 kts | 300° |
| 2026-04-29 18:02 | 48.72944 | 12.99098 | 38260 ft | 420 kts | 300° |
| 2026-04-29 18:03 | 48.75552 | 12.91282 | 38273 ft | 421 kts | 300° |
| 2026-04-29 18:03 | 48.78178 | 12.83391 | 38282 ft | 421 kts | 300° |
| 2026-04-29 18:04 | 48.80810 | 12.75456 | 38276 ft | 421 kts | 300° |
| 2026-04-29 18:04 | 48.83437 | 12.67514 | 38279 ft | 421 kts | 300° |
| 2026-04-29 18:05 | 48.86039 | 12.59625 | 38281 ft | 421 kts | 300° |
| 2026-04-29 18:05 | 48.88652 | 12.51679 | 38277 ft | 422 kts | 300° |
| 2026-04-29 18:06 | 48.91260 | 12.43716 | 38284 ft | 422 kts | 300° |
| 2026-04-29 18:06 | 48.93856 | 12.35768 | 38283 ft | 422 kts | 300° |
| 2026-04-29 18:07 | 48.96460 | 12.27770 | 38328 ft | 423 kts | 300° |
| 2026-04-29 18:07 | 48.99060 | 12.19764 | 38285 ft | 424 kts | 300° |
| 2026-04-29 18:08 | 49.01663 | 12.11723 | 38291 ft | 426 kts | 300° |
| 2026-04-29 18:08 | 49.04257 | 12.03681 | 38283 ft | 425 kts | 300° |
| 2026-04-29 18:09 | 49.06862 | 11.95584 | 38267 ft | 425 kts | 300° |
| 2026-04-29 18:09 | 49.09438 | 11.87544 | 38265 ft | 425 kts | 300° |
| 2026-04-29 18:10 | 49.12035 | 11.79411 | 38268 ft | 424 kts | 300° |
| 2026-04-29 18:10 | 49.14607 | 11.71336 | 38275 ft | 426 kts | 300° |
| 2026-04-29 18:11 | 49.17192 | 11.63193 | 38273 ft | 428 kts | 300° |
| 2026-04-29 18:11 | 49.19784 | 11.54999 | 38261 ft | 426 kts | 300° |
| 2026-04-29 18:12 | 49.22355 | 11.46850 | 38261 ft | 429 kts | 300° |
| 2026-04-29 18:12 | 49.24929 | 11.38662 | 38264 ft | 429 kts | 300° |
| 2026-04-29 18:13 | 49.27501 | 11.30446 | 38270 ft | 429 kts | 299° |
| 2026-04-29 18:13 | 49.30075 | 11.22206 | 38268 ft | 430 kts | 299° |
| 2026-04-29 18:14 | 49.32632 | 11.13989 | 38273 ft | 429 kts | 299° |
| 2026-04-29 18:14 | 49.35177 | 11.05777 | 38280 ft | 430 kts | 300° |
| 2026-04-29 18:15 | 49.37762 | 10.97415 | 38282 ft | 433 kts | 299° |
| 2026-04-29 18:15 | 49.40343 | 10.89146 | 38292 ft | 432 kts | 300° |
| 2026-04-29 18:16 | 49.43016 | 10.80928 | 38281 ft | 431 kts | 301° |
| 2026-04-29 18:16 | 49.45705 | 10.72706 | 38280 ft | 432 kts | 301° |
| 2026-04-29 18:17 | 49.48366 | 10.64517 | 38290 ft | 432 kts | 301° |
| 2026-04-29 18:17 | 49.51034 | 10.56250 | 38293 ft | 433 kts | 301° |
| 2026-04-29 18:18 | 49.53683 | 10.48001 | 38305 ft | 434 kts | 301° |
| 2026-04-29 18:18 | 49.56334 | 10.39709 | 38288 ft | 433 kts | 301° |
| 2026-04-29 18:19 | 49.59007 | 10.31324 | 38289 ft | 436 kts | 300° |
| 2026-04-29 18:19 | 49.61663 | 10.22952 | 38284 ft | 437 kts | 300° |
| 2026-04-29 18:20 | 49.64310 | 10.14588 | 38273 ft | 436 kts | 300° |
| 2026-04-29 18:20 | 49.66954 | 10.06192 | 38285 ft | 436 kts | 300° |
| 2026-04-29 18:21 | 49.69599 | 9.97784 | 38281 ft | 438 kts | 300° |
| 2026-04-29 18:21 | 49.72232 | 9.89385 | 38286 ft | 438 kts | 300° |
| 2026-04-29 18:22 | 49.74876 | 9.80920 | 38286 ft | 439 kts | 300° |
| 2026-04-29 18:22 | 49.77513 | 9.72446 | 38288 ft | 439 kts | 300° |
| 2026-04-29 18:23 | 49.80148 | 9.63944 | 38281 ft | 440 kts | 300° |
| 2026-04-29 18:23 | 49.82761 | 9.55488 | 38283 ft | 439 kts | 300° |
| 2026-04-29 18:24 | 49.85397 | 9.46921 | 38282 ft | 440 kts | 300° |
| 2026-04-29 18:24 | 49.88016 | 9.38387 | 38282 ft | 440 kts | 300° |
| 2026-04-29 18:25 | 49.90622 | 9.29864 | 38283 ft | 440 kts | 300° |
| 2026-04-29 18:25 | 49.93227 | 9.21316 | 38282 ft | 441 kts | 299° |
| 2026-04-29 18:26 | 49.95841 | 9.12707 | 38272 ft | 441 kts | 299° |
| 2026-04-29 18:26 | 49.98444 | 9.04105 | 38281 ft | 442 kts | 299° |
| 2026-04-29 18:27 | 50.01051 | 8.95463 | 38289 ft | 442 kts | 299° |
| 2026-04-29 18:27 | 50.03630 | 8.86829 | 38267 ft | 443 kts | 297° |
| 2026-04-29 18:28 | 50.05453 | 8.77651 | 38281 ft | 451 kts | 282° |
| 2026-04-29 18:28 | 50.05762 | 8.67846 | 38290 ft | 459 kts | 274° |
| 2026-04-29 18:29 | 50.05612 | 8.58018 | 38281 ft | 457 kts | 272° |
| 2026-04-29 18:29 | 50.05409 | 8.48097 | 38298 ft | 459 kts | 272° |
| 2026-04-29 18:30 | 50.05235 | 8.38288 | 38291 ft | 460 kts | 272° |
| 2026-04-29 18:30 | 50.05076 | 8.28315 | 38287 ft | 460 kts | 272° |
| 2026-04-29 18:31 | 50.04924 | 8.18462 | 38287 ft | 458 kts | 272° |
| 2026-04-29 18:31 | 50.04771 | 8.08600 | 38272 ft | 458 kts | 272° |
| 2026-04-29 18:32 | 50.04621 | 7.98722 | 38276 ft | 457 kts | 272° |
| 2026-04-29 18:32 | 50.04400 | 7.83958 | 38284 ft | 459 kts | 272° |
| 2026-04-29 18:33 | 50.04243 | 7.74011 | 38274 ft | 461 kts | 272° |
| 2026-04-29 18:33 | 50.04073 | 7.64139 | 38256 ft | 459 kts | 272° |
| 2026-04-29 18:34 | 50.03925 | 7.55920 | 38246 ft | 460 kts | 272° |
| 2026-04-29 18:34 | 50.03708 | 7.44322 | 38268 ft | 459 kts | 272° |
| 2026-04-29 18:35 | 50.03515 | 7.34455 | 38285 ft | 458 kts | 271° |
| 2026-04-29 18:35 | 50.03313 | 7.24556 | 38265 ft | 460 kts | 271° |
| 2026-04-29 18:36 | 50.03101 | 7.14608 | 38271 ft | 462 kts | 271° |
| 2026-04-29 18:36 | 50.02878 | 7.04718 | 38266 ft | 461 kts | 271° |
| 2026-04-29 18:37 | 50.02644 | 6.94797 | 38264 ft | 460 kts | 271° |
| 2026-04-29 18:37 | 50.02403 | 6.84874 | 38259 ft | 460 kts | 271° |
| 2026-04-29 18:38 | 50.02056 | 6.75020 | 38247 ft | 461 kts | 268° |
| 2026-04-29 18:38 | 50.00704 | 6.65276 | 38258 ft | 468 kts | 255° |
| 2026-04-29 18:39 | 49.98455 | 6.55811 | 38254 ft | 469 kts | 251° |
| 2026-04-29 18:39 | 49.95874 | 6.46549 | 38262 ft | 469 kts | 248° |
| 2026-04-29 18:40 | 49.93179 | 6.37408 | 38254 ft | 469 kts | 248° |
| 2026-04-29 18:40 | 49.90486 | 6.28177 | 38250 ft | 469 kts | 248° |
| 2026-04-29 18:41 | 49.84834 | 6.10052 | 38229 ft | 470 kts | 239° |
| 2026-04-29 18:42 | 49.81164 | 6.01664 | 38224 ft | 472 kts | 236° |
| 2026-04-29 18:42 | 49.77328 | 5.93538 | 38215 ft | 469 kts | 235° |
| 2026-04-29 18:43 | 49.73767 | 5.85182 | 38212 ft | 467 kts | 245° |
| 2026-04-29 18:43 | 49.71271 | 5.76016 | 38207 ft | 464 kts | 252° |
| 2026-04-29 18:44 | 49.70202 | 5.71316 | 37979 ft | 466 kts | 253° |
| 2026-04-29 18:44 | 49.69159 | 5.66582 | 37457 ft | 466 kts | 254° |
| 2026-04-29 18:44 | 49.68119 | 5.61839 | 36269 ft | 478 kts | 253° |
| 2026-04-29 18:44 | 49.67053 | 5.57016 | 35393 ft | 485 kts | 253° |
| 2026-04-29 18:45 | 49.65943 | 5.52074 | 34868 ft | 482 kts | 252° |
| 2026-04-29 18:45 | 49.64848 | 5.47278 | 34487 ft | 474 kts | 252° |
| 2026-04-29 18:45 | 49.63761 | 5.42581 | 34096 ft | 467 kts | 252° |
| 2026-04-29 18:45 | 49.62676 | 5.37925 | 33706 ft | 461 kts | 252° |
| 2026-04-29 18:46 | 49.61599 | 5.33244 | 33109 ft | 462 kts | 252° |
| 2026-04-29 18:46 | 49.60570 | 5.28534 | 32043 ft | 471 kts | 253° |
| 2026-04-29 18:46 | 49.59779 | 5.23680 | 31289 ft | 469 kts | 262° |
| 2026-04-29 18:46 | 49.59382 | 5.18794 | 31196 ft | 461 kts | 268° |
| 2026-04-29 18:47 | 49.59180 | 5.08781 | 31187 ft | 468 kts | 272° |
| 2026-04-29 18:47 | 49.59248 | 4.98879 | 31191 ft | 465 kts | 273° |
| 2026-04-29 18:48 | 49.59355 | 4.88964 | 31181 ft | 463 kts | 273° |
| 2026-04-29 18:48 | 49.59447 | 4.79004 | 30945 ft | 467 kts | 273° |
| 2026-04-29 18:49 | 49.59484 | 4.74091 | 30398 ft | 466 kts | 273° |
| 2026-04-29 18:49 | 49.59515 | 4.69125 | 29839 ft | 461 kts | 273° |
| 2026-04-29 18:49 | 49.59541 | 4.64264 | 29257 ft | 457 kts | 273° |
| 2026-04-29 18:49 | 49.59564 | 4.59357 | 28671 ft | 452 kts | 273° |
| 2026-04-29 18:50 | 49.59582 | 4.54577 | 28120 ft | 448 kts | 272° |
| 2026-04-29 18:50 | 49.59599 | 4.49866 | 27557 ft | 444 kts | 272° |
| 2026-04-29 18:50 | 49.59614 | 4.45144 | 27018 ft | 439 kts | 272° |
| 2026-04-29 18:50 | 49.59627 | 4.40489 | 26438 ft | 435 kts | 272° |
| 2026-04-29 18:51 | 49.59638 | 4.35834 | 25867 ft | 431 kts | 272° |
| 2026-04-29 18:51 | 49.59646 | 4.31272 | 25080 ft | 426 kts | 272° |
| 2026-04-29 18:51 | 49.59653 | 4.26747 | 24230 ft | 422 kts | 271° |
| 2026-04-29 18:51 | 49.59657 | 4.22281 | 23435 ft | 418 kts | 272° |
| 2026-04-29 18:52 | 49.59660 | 4.17878 | 22681 ft | 412 kts | 272° |
| 2026-04-29 18:52 | 49.59661 | 4.13491 | 21967 ft | 406 kts | 272° |
| 2026-04-29 18:52 | 49.59660 | 4.09218 | 21584 ft | 391 kts | 272° |
| 2026-04-29 18:52 | 49.59657 | 4.05103 | 21234 ft | 377 kts | 272° |
| 2026-04-29 18:53 | 49.59654 | 4.01154 | 20926 ft | 364 kts | 272° |
| 2026-04-29 18:53 | 49.59652 | 3.97314 | 20378 ft | 359 kts | 272° |
| 2026-04-29 18:53 | 49.59651 | 3.93504 | 19749 ft | 357 kts | 272° |
| 2026-04-29 18:53 | 49.59649 | 3.89729 | 19157 ft | 354 kts | 272° |
| 2026-04-29 18:54 | 49.59644 | 3.85929 | 18544 ft | 351 kts | 272° |
| 2026-04-29 18:54 | 49.59639 | 3.82214 | 17945 ft | 349 kts | 272° |
| 2026-04-29 18:54 | 49.59631 | 3.78520 | 17393 ft | 345 kts | 272° |
| 2026-04-29 18:54 | 49.59623 | 3.74852 | 16826 ft | 342 kts | 272° |
| 2026-04-29 18:55 | 49.59613 | 3.71195 | 16222 ft | 341 kts | 271° |
| 2026-04-29 18:55 | 49.59602 | 3.67553 | 15650 ft | 338 kts | 271° |
| 2026-04-29 18:55 | 49.59590 | 3.64001 | 15198 ft | 332 kts | 271° |
| 2026-04-29 18:55 | 49.59576 | 3.60511 | 14865 ft | 322 kts | 271° |
| 2026-04-29 18:56 | 49.59544 | 3.57064 | 14377 ft | 319 kts | 269° |
| 2026-04-29 18:56 | 49.59351 | 3.53685 | 13864 ft | 318 kts | 262° |
| 2026-04-29 18:56 | 49.58936 | 3.50381 | 13332 ft | 317 kts | 257° |
| 2026-04-29 18:56 | 49.58418 | 3.47134 | 12848 ft | 314 kts | 256° |
| 2026-04-29 18:57 | 49.57872 | 3.43880 | 12380 ft | 311 kts | 255° |
| 2026-04-29 18:57 | 49.57350 | 3.40715 | 11901 ft | 308 kts | 256° |
| 2026-04-29 18:57 | 49.56839 | 3.37517 | 11400 ft | 306 kts | 256° |
| 2026-04-29 18:57 | 49.56346 | 3.34376 | 10909 ft | 304 kts | 255° |
| 2026-04-29 18:58 | 49.55852 | 3.31203 | 10422 ft | 301 kts | 255° |
| 2026-04-29 18:58 | 49.55374 | 3.28124 | 9965 ft | 298 kts | 255° |
| 2026-04-29 18:58 | 49.54894 | 3.25047 | 9476 ft | 296 kts | 255° |
| 2026-04-29 18:58 | 49.54417 | 3.21995 | 9160 ft | 291 kts | 255° |
| 2026-04-29 18:59 | 49.53941 | 3.18957 | 9152 ft | 293 kts | 255° |
| 2026-04-29 18:59 | 49.53464 | 3.15923 | 9147 ft | 295 kts | 255° |
| 2026-04-29 18:59 | 49.52979 | 3.12842 | 9146 ft | 294 kts | 255° |
| 2026-04-29 18:59 | 49.52501 | 3.09806 | 9151 ft | 294 kts | 255° |
| 2026-04-29 19:00 | 49.52017 | 3.06741 | 9161 ft | 295 kts | 255° |
| 2026-04-29 19:00 | 49.51598 | 3.03673 | 9142 ft | 295 kts | 262° |
| 2026-04-29 19:00 | 49.51539 | 3.00521 | 9147 ft | 295 kts | 274° |
| 2026-04-29 19:00 | 49.51756 | 2.97369 | 9145 ft | 295 kts | 278° |
| 2026-04-29 19:01 | 49.52040 | 2.94267 | 9146 ft | 296 kts | 278° |
| 2026-04-29 19:01 | 49.52315 | 2.91149 | 9141 ft | 295 kts | 277° |
| 2026-04-29 19:01 | 49.52567 | 2.87994 | 9151 ft | 296 kts | 277° |
| 2026-04-29 19:01 | 49.52799 | 2.84852 | 9154 ft | 295 kts | 276° |
| 2026-04-29 19:02 | 49.53019 | 2.81727 | 9151 ft | 295 kts | 276° |
| 2026-04-29 19:02 | 49.53164 | 2.79632 | 9151 ft | 295 kts | 276° |
| 2026-04-29 19:02 | 49.53451 | 2.75488 | 9149 ft | 295 kts | 276° |
| 2026-04-29 19:02 | 49.53671 | 2.72319 | 9151 ft | 295 kts | 276° |
| 2026-04-29 19:03 | 49.53886 | 2.69213 | 9155 ft | 295 kts | 276° |
| 2026-04-29 19:03 | 49.54102 | 2.66071 | 9150 ft | 296 kts | 276° |
| 2026-04-29 19:03 | 49.54318 | 2.62921 | 9150 ft | 296 kts | 276° |
| 2026-04-29 19:03 | 49.54533 | 2.59779 | 9146 ft | 296 kts | 276° |
| 2026-04-29 19:04 | 49.54746 | 2.56636 | 8962 ft | 292 kts | 276° |
| 2026-04-29 19:04 | 49.54955 | 2.53547 | 8646 ft | 290 kts | 276° |
| 2026-04-29 19:04 | 49.55162 | 2.50482 | 8303 ft | 289 kts | 276° |
| 2026-04-29 19:04 | 49.55373 | 2.47419 | 8148 ft | 288 kts | 277° |
| 2026-04-29 19:05 | 49.55603 | 2.44339 | 8145 ft | 293 kts | 277° |
| 2026-04-29 19:05 | 49.55843 | 2.41215 | 8134 ft | 292 kts | 277° |
| 2026-04-29 19:05 | 49.56078 | 2.38149 | 8133 ft | 294 kts | 277° |
| 2026-04-29 19:05 | 49.56314 | 2.35021 | 8141 ft | 294 kts | 277° |
| 2026-04-29 19:06 | 49.56547 | 2.31899 | 8131 ft | 293 kts | 276° |
| 2026-04-29 19:06 | 49.56781 | 2.28758 | 8126 ft | 294 kts | 276° |
| 2026-04-29 19:06 | 49.57239 | 2.22545 | 8132 ft | 293 kts | 276° |
| 2026-04-29 19:07 | 49.57469 | 2.19418 | 8124 ft | 294 kts | 276° |
| 2026-04-29 19:07 | 49.57621 | 2.17345 | 8129 ft | 294 kts | 276° |
| 2026-04-29 19:07 | 49.57924 | 2.13197 | 8137 ft | 293 kts | 276° |
| 2026-04-29 19:07 | 49.58147 | 2.10119 | 7961 ft | 288 kts | 276° |
| 2026-04-29 19:08 | 49.58367 | 2.07083 | 7620 ft | 287 kts | 276° |
| 2026-04-29 19:08 | 49.58585 | 2.04058 | 7275 ft | 285 kts | 276° |
| 2026-04-29 19:08 | 49.58802 | 2.01033 | 6943 ft | 285 kts | 276° |
| 2026-04-29 19:08 | 49.59020 | 1.97987 | 6474 ft | 290 kts | 276° |
| 2026-04-29 19:09 | 49.59240 | 1.94898 | 6154 ft | 287 kts | 276° |
| 2026-04-29 19:09 | 49.59455 | 1.91871 | 5948 ft | 280 kts | 276° |
| 2026-04-29 19:09 | 49.59661 | 1.88955 | 5706 ft | 276 kts | 276° |
| 2026-04-29 19:09 | 49.59866 | 1.86044 | 5579 ft | 267 kts | 276° |
| 2026-04-29 19:10 | 49.60060 | 1.83242 | 5488 ft | 257 kts | 274° |
| 2026-04-29 19:10 | 49.60054 | 1.80559 | 5399 ft | 253 kts | 258° |
| 2026-04-29 19:10 | 49.59412 | 1.78080 | 5286 ft | 242 kts | 227° |
| 2026-04-29 19:10 | 49.58164 | 1.76540 | 5032 ft | 226 kts | 194° |
| 2026-04-29 19:11 | 49.56692 | 1.76306 | 4785 ft | 206 kts | 159° |
| 2026-04-29 19:11 | 49.55535 | 1.77340 | 4563 ft | 189 kts | 125° |
| 2026-04-29 19:11 | 49.55085 | 1.79150 | 4368 ft | 183 kts | 94° |
| 2026-04-29 19:11 | 49.55066 | 1.81095 | 4249 ft | 184 kts | 98° |
| 2026-04-29 19:12 | 49.54590 | 1.82947 | 3751 ft | 197 kts | 116° |
| 2026-04-29 19:12 | 49.53951 | 1.84873 | 3253 ft | 201 kts | 113° |
| 2026-04-29 19:12 | 49.53471 | 1.86826 | 3078 ft | 188 kts | 103° |
| 2026-04-29 19:12 | 49.53328 | 1.88088 | 3047 ft | 177 kts | 97° |
| 2026-04-29 19:13 | 49.53272 | 1.90469 | 2919 ft | 161 kts | 90° |
| 2026-04-29 19:13 | 49.53224 | 1.92136 | 2768 ft | 152 kts | 104° |
| 2026-04-29 19:13 | 49.52782 | 1.93589 | 2617 ft | 146 kts | 113° |
| 2026-04-29 19:13 | 49.52324 | 1.94930 | 2467 ft | 140 kts | 113° |
| 2026-04-29 19:14 | 49.51846 | 1.96206 | 2328 ft | 136 kts | 115° |
| 2026-04-29 19:14 | 49.51351 | 1.97445 | 2212 ft | 135 kts | 116° |
| 2026-04-29 19:14 | 49.50853 | 1.98665 | 2119 ft | 135 kts | 115° |
| 2026-04-29 19:14 | 49.50339 | 1.99879 | 1969 ft | 134 kts | 116° |
| 2026-04-29 19:15 | 49.49858 | 2.01012 | 1831 ft | 116 kts | 115° |
| 2026-04-29 19:15 | 49.49428 | 2.02038 | 1658 ft | 113 kts | 115° |
| 2026-04-29 19:15 | 49.48991 | 2.03050 | 1497 ft | 115 kts | 117° |
| 2026-04-29 19:15 | 49.48547 | 2.04070 | 1344 ft | 116 kts | 116° |
| 2026-04-29 19:16 | 49.48109 | 2.05120 | 1197 ft | 120 kts | 116° |
| 2026-04-29 19:16 | 49.47644 | 2.06190 | 1019 ft | 120 kts | 118° |
| 2026-04-29 19:16 | 49.47184 | 2.07261 | 898 ft | 122 kts | 117° |
| 2026-04-29 19:16 | 49.46705 | 2.08376 | 713 ft | 127 kts | 119° |
| 2026-04-29 19:17 | 49.46210 | 2.09510 | 532 ft | 130 kts | 118° |
| 2026-04-29 19:17 | 49.45710 | 2.10667 | 359 ft | 130 kts | 120° |
| 2026-04-29 19:17 | 49.45245 | 2.11742 | 331 ft | 94 kts | 124° |
| 2026-04-29 19:17 | 49.45035 | 2.12303 | 322 ft | 31 kts | 93° |
| 2026-04-29 19:18 | 49.45022 | 2.12637 | 315 ft | 31 kts | 95° |
| 2026-04-29 19:18 | 49.44965 | 2.12843 | 311 ft | 32 kts | 122° |
| 2026-04-29 19:18 | 49.44798 | 2.13222 | 308 ft | 31 kts | 126° |
| 2026-04-29 19:18 | 49.44650 | 2.13192 | 302 ft | 29 kts | 265° |
| 2026-04-29 19:19 | 49.44736 | 2.12910 | 305 ft | 31 kts | 303° |
| 2026-04-29 19:19 | 49.44880 | 2.12581 | 314 ft | 42 kts | 303° |
| 2026-04-29 19:19 | 49.45061 | 2.12171 | 322 ft | 47 kts | 302° |
| 2026-04-29 19:19 | 49.45237 | 2.11757 | 330 ft | 44 kts | 304° |
| 2026-04-29 19:20 | 49.45397 | 2.11381 | 337 ft | 34 kts | 306° |
| 2026-04-29 19:20 | 49.45554 | 2.11433 | 339 ft | 26 kts | 41° |
| 2026-04-29 19:20 | 49.45682 | 2.11602 | 344 ft | 19 kts | 24° |
| 2026-04-29 19:20 | 49.45774 | 2.11539 | 348 ft | 13 kts | 313° |
| 2026-04-29 19:21 | 49.45839 | 2.11470 | 350 ft | 9 kts | 335° |
| 2026-04-29 19:21 | 49.45887 | 2.11437 | 352 ft | 5 kts | 336° |
| 2026-04-29 19:21 | 49.45898 | 2.11429 | 352 ft | 0 kts | 336° |